Time;durP1;ratioP1;P1;durP2;ratioP2;P2;SDS_P1;SDS_P2;PMS_P1;PMS_P2;Temp;Humidity;BMP_temperature;BMP_pressure;BME280_temperature;BME280_humidity;BME280_pressure;Samples;Min_cycle;Max_cycle;Signal;HPM_P1;HPM_P2
2022/11/20 00:00:55;;;;;;;44.55;19.33;;;;;;;4.32;74.91;100794.16;5074479;28;20155;-64
2022/11/20 00:03:22;;;;;;;41.17;18.25;;;;;;;4.25;76.15;100790.31;5074541;28;20056;-64
2022/11/20 00:05:49;;;;;;;45.40;19.95;;;;;;;4.26;75.91;100782.34;5073062;28;20040;-63
2022/11/20 00:08:16;;;;;;;43.53;19.42;;;;;;;4.33;76.11;100790.59;5074473;28;20444;-63
2022/11/20 00:10:42;;;;;;;45.85;19.45;;;;;;;4.23;75.35;100778.13;5073966;28;20052;-64
2022/11/20 00:13:10;;;;;;;45.38;19.38;;;;;;;4.38;74.70;100777.94;5074261;28;20481;-63
2022/11/20 00:15:36;;;;;;;44.78;19.38;;;;;;;4.43;75.66;100779.28;5073904;28;20048;-64
2022/11/20 00:18:03;;;;;;;43.45;19.85;;;;;;;4.42;75.33;100784.66;5074233;28;20048;-64
2022/11/20 00:20:30;;;;;;;52.85;20.05;;;;;;;4.26;75.16;100784.97;5073458;28;20053;-64
2022/11/20 00:22:56;;;;;;;46.55;19.60;;;;;;;4.18;75.70;100785.53;5056140;28;20401;-63
2022/11/20 00:25:23;;;;;;;45.03;20.40;;;;;;;4.29;75.97;100784.72;5074034;28;20053;-64
2022/11/20 00:27:50;;;;;;;50.30;21.38;;;;;;;4.45;76.02;100789.69;5073802;28;20516;-64
2022/11/20 00:30:17;;;;;;;48.47;20.80;;;;;;;4.44;75.49;100788.03;5073463;28;20056;-64
2022/11/20 00:32:43;;;;;;;46.00;20.70;;;;;;;4.48;75.63;100776.34;5073330;28;20048;-63
2022/11/20 00:35:10;;;;;;;47.25;20.67;;;;;;;4.38;75.12;100785.84;5073901;28;20098;-64
2022/11/20 00:37:36;;;;;;;51.00;21.75;;;;;;;4.12;75.04;100783.31;5073575;28;20044;-64
2022/11/20 00:40:04;;;;;;;50.55;21.58;;;;;;;4.18;75.48;100785.53;5072596;28;20052;-63
2022/11/20 00:42:32;;;;;;;55.60;21.95;;;;;;;4.17;75.92;100773.34;5073517;28;20371;-63
2022/11/20 00:44:59;;;;;;;50.03;21.50;;;;;;;4.31;76.19;100776.72;5073482;28;20075;-63
2022/11/20 00:47:26;;;;;;;49.33;20.45;;;;;;;4.24;75.66;100776.34;5055912;28;20455;-63
2022/11/20 00:49:53;;;;;;;53.40;21.73;;;;;;;4.34;75.46;100774.72;5073687;28;20055;-63
2022/11/20 00:52:20;;;;;;;53.17;21.58;;;;;;;4.28;74.90;100769.91;5073034;28;20032;-63
2022/11/20 00:54:46;;;;;;;53.25;22.30;;;;;;;4.33;75.04;100774.81;5073425;28;20052;-63
2022/11/20 00:57:13;;;;;;;51.15;21.77;;;;;;;4.29;75.35;100774.22;5073324;28;20052;-63
2022/11/20 00:59:40;;;;;;;51.20;21.10;;;;;;;4.33;75.58;100780.06;5073357;28;20112;-64
2022/11/20 01:02:07;;;;;;;47.03;21.42;;;;;;;4.29;76.03;100768.13;5073284;28;20393;-64
2022/11/20 01:04:33;;;;;;;46.15;21.00;;;;;;;4.39;76.73;100771.75;5073153;28;20045;-63
2022/11/20 01:07:00;;;;;;;50.25;21.65;;;;;;;4.37;76.91;100768.41;5072197;28;20075;-63
2022/11/20 01:09:27;;;;;;;47.05;20.38;;;;;;;4.35;75.89;100771.16;5073369;28;20076;-63
2022/11/20 01:11:54;;;;;;;49.88;21.70;;;;;;;4.33;75.61;100769.56;5073442;28;20044;-63
2022/11/20 01:14:20;;;;;;;46.15;20.15;;;;;;;4.35;76.00;100763.28;5072068;28;20048;-63
2022/11/20 01:16:50;;;;;;;47.45;20.27;;;;;;;4.36;76.14;100766.72;5074919;28;20433;-63
2022/11/20 01:19:20;;;;;;;46.13;20.65;;;;;;;4.25;75.93;100762.25;5072729;28;20048;-63
2022/11/20 01:21:50;;;;;;;50.50;21.42;;;;;;;4.18;76.39;100756.63;5073509;28;20040;-62
2022/11/20 01:24:19;;;;;;;48.60;21.67;;;;;;;4.17;76.79;100757.56;5073334;28;20047;-62
2022/11/20 01:26:48;;;;;;;48.20;21.83;;;;;;;4.17;76.68;100762.81;5072988;28;20086;-62
2022/11/20 01:29:18;;;;;;;50.05;22.63;;;;;;;4.18;76.33;100764.50;5073095;28;20049;-63
2022/11/20 01:31:46;;;;;;;50.67;21.73;;;;;;;4.26;77.09;100766.56;5073025;28;20048;-63
2022/11/20 01:34:15;;;;;;;51.25;22.08;;;;;;;4.34;76.91;100768.63;5072827;28;20037;-63
2022/11/20 01:36:42;;;;;;;49.50;20.75;;;;;;;4.29;77.32;100765.50;5072294;28;20374;-63
2022/11/20 01:39:13;;;;;;;49.58;21.48;;;;;;;4.26;76.90;100756.06;5073208;28;20060;-63
2022/11/20 01:47:40;;;;;;;47.63;19.80;;;;;;;4.22;76.23;100758.09;5111133;27;20382;-63
2022/11/20 01:50:16;;;;;;;53.13;21.48;;;;;;;4.12;76.65;100757.06;5111480;28;20075;-62
2022/11/20 01:52:51;;;;;;;47.70;21.05;;;;;;;4.20;77.13;100752.13;5110753;28;20066;-62
2022/11/20 01:55:25;;;;;;;48.47;21.10;;;;;;;4.31;77.34;100747.84;5110848;28;20100;-62
2022/11/20 01:57:51;;;;;;;44.45;19.73;;;;;;;4.29;77.18;100747.13;5111122;28;20044;-63
2022/11/20 02:00:20;;;;;;;48.47;21.60;;;;;;;4.18;77.62;100745.28;5111142;28;20048;-63
2022/11/20 02:02:56;;;;;;;52.63;21.27;;;;;;;3.91;77.38;100751.59;5111090;28;20127;-63
2022/11/20 02:05:32;;;;;;;52.65;21.55;;;;;;;3.99;77.75;100744.00;5109743;28;20408;-63
2022/11/20 02:07:59;;;;;;;46.83;20.60;;;;;;;4.12;77.79;100743.94;5110602;28;20048;-63
2022/11/20 02:10:27;;;;;;;50.55;21.13;;;;;;;4.08;77.74;100739.88;5110493;28;20447;-63
2022/11/20 02:15:42;;;;;;;52.90;22.20;;;;;;;4.01;79.12;100720.25;5110311;28;20066;-63
2022/11/20 02:18:11;;;;;;;47.50;21.25;;;;;;;4.04;79.12;100714.81;5110792;28;20048;-63
2022/11/20 02:20:40;;;;;;;47.17;21.40;;;;;;;3.84;78.95;100713.63;5110427;28;20040;-63
2022/11/20 02:23:12;;;;;;;52.40;22.23;;;;;;;3.79;79.44;100710.50;5110319;28;20040;-63
2022/11/20 02:25:41;;;;;;;49.85;21.38;;;;;;;3.68;79.59;100707.81;5110582;28;20040;-63
2022/11/20 02:28:08;;;;;;;56.30;22.58;;;;;;;3.72;79.12;100709.25;5110095;28;20412;-63
2022/11/20 02:30:35;;;;;;;54.17;22.00;;;;;;;3.56;79.96;100709.50;5110418;28;20044;-63
2022/11/20 02:33:01;;;;;;;51.60;22.25;;;;;;;3.51;80.35;100717.72;5109975;28;20515;-63
2022/11/20 02:38:08;;;;;;;54.17;22.30;;;;;;;3.57;79.75;100721.69;5110650;27;20385;-62
2022/11/20 02:40:35;;;;;;;52.72;21.85;;;;;;;3.56;80.48;100723.47;5111424;28;20092;-64
2022/11/20 02:43:01;;;;;;;51.47;21.88;;;;;;;3.56;80.47;100717.38;5111170;28;20051;-62
2022/11/20 02:45:28;;;;;;;52.42;21.25;;;;;;;3.46;80.78;100722.47;5110926;28;20044;-63
2022/11/20 02:47:54;;;;;;;50.17;20.88;;;;;;;3.42;81.18;100713.09;5111285;28;20048;-62
2022/11/20 02:50:22;;;;;;;51.03;19.92;;;;;;;3.41;80.52;100721.94;5110878;28;20039;-63
2022/11/20 02:52:48;;;;;;;53.65;20.73;;;;;;;3.35;80.53;100707.47;5110637;28;20089;-63
2022/11/20 02:55:15;;;;;;;50.13;21.17;;;;;;;3.28;81.28;100708.84;5110624;28;20055;-63
2022/11/20 02:57:42;;;;;;;50.08;21.75;;;;;;;3.21;81.51;100710.22;5110743;28;20423;-63
2022/11/20 03:00:09;;;;;;;52.13;21.77;;;;;;;3.15;82.04;100718.53;5110648;28;20467;-63
2022/11/20 03:02:36;;;;;;;49.22;20.85;;;;;;;3.18;81.51;100713.06;5110821;28;20048;-63
2022/11/20 03:05:02;;;;;;;48.97;20.38;;;;;;;3.14;81.96;100715.03;5110150;28;20429;-63
2022/11/20 03:07:29;;;;;;;54.30;22.48;;;;;;;3.12;82.40;100710.88;5110004;28;20059;-63
2022/11/20 03:09:56;;;;;;;51.33;22.00;;;;;;;3.06;82.44;100712.97;5110703;28;20048;-63
2022/11/20 03:12:22;;;;;;;49.63;21.60;;;;;;;3.06;83.09;100712.97;5110413;28;20040;-63
2022/11/20 03:14:49;;;;;;;50.40;22.17;;;;;;;3.08;82.17;100711.06;5110401;28;20036;-63
2022/11/20 03:17:18;;;;;;;49.58;22.13;;;;;;;3.06;82.49;100707.72;5110473;28;20071;-63
2022/11/20 03:19:45;;;;;;;50.30;20.83;;;;;;;3.10;82.88;100718.00;5110307;28;20493;-63
2022/11/20 03:22:11;;;;;;;50.75;20.58;;;;;;;3.04;83.32;100714.84;5110417;28;20051;-63
2022/11/20 03:24:38;;;;;;;48.83;21.15;;;;;;;3.06;83.27;100714.75;5110470;28;20069;-63
2022/11/20 03:27:05;;;;;;;54.63;21.20;;;;;;;2.95;82.76;100710.25;5110315;28;20043;-62
2022/11/20 03:29:32;;;;;;;49.30;20.38;;;;;;;2.97;82.31;100705.75;5109906;28;20374;-62
2022/11/20 03:31:58;;;;;;;47.55;21.08;;;;;;;2.90;83.11;100712.34;5110166;28;20052;-62
2022/11/20 03:34:25;;;;;;;46.63;20.90;;;;;;;2.84;83.45;100705.75;5110373;28;20054;-62
2022/11/20 03:36:52;;;;;;;48.42;21.27;;;;;;;2.66;83.65;100709.63;5109323;28;20044;-63
2022/11/20 03:39:19;;;;;;;52.35;21.15;;;;;;;2.41;85.46;100706.03;5110173;28;20043;-62
2022/11/20 03:41:46;;;;;;;49.20;20.42;;;;;;;2.27;86.47;100695.63;5109499;28;20052;-66
2022/11/20 03:44:13;;;;;;;49.15;20.15;;;;;;;2.28;86.10;100698.13;5110167;28;20400;-66
2022/11/20 03:46:39;;;;;;;44.47;20.20;;;;;;;2.42;85.34;100702.47;5109746;28;20043;-66
2022/11/20 03:49:06;;;;;;;49.85;20.88;;;;;;;2.50;84.94;100696.72;5098718;28;20051;-66
2022/11/20 03:51:36;;;;;;;49.95;20.52;;;;;;;2.46;85.00;100696.09;5096188;28;20048;-66
2022/11/20 03:54:06;;;;;;;47.17;20.77;;;;;;;2.33;85.35;100697.84;5096260;28;20059;-65
2022/11/20 03:56:36;;;;;;;49.55;20.10;;;;;;;2.45;85.01;100698.78;5096115;28;20047;-66
2022/11/20 03:59:03;;;;;;;48.28;21.02;;;;;;;2.41;85.29;100703.41;5095718;28;20382;-65
2022/11/20 04:01:33;;;;;;;46.42;18.95;;;;;;;2.30;85.92;100711.13;5096288;28;20048;-66
2022/11/20 04:04:01;;;;;;;49.53;20.30;;;;;;;2.20;86.86;100704.81;5095918;28;20052;-66
2022/11/20 04:06:33;;;;;;;47.72;20.17;;;;;;;2.38;86.88;100700.97;5095161;28;20481;-66
2022/11/20 04:09:00;;;;;;;44.80;19.98;;;;;;;2.44;86.23;100697.97;5095803;28;20054;-66
2022/11/20 04:11:29;;;;;;;44.25;18.80;;;;;;;2.50;86.52;100702.78;5096089;28;20110;-65
2022/11/20 04:13:59;;;;;;;50.47;20.92;;;;;;;2.59;86.21;100693.47;5096018;28;20489;-66
2022/11/20 04:16:28;;;;;;;46.60;20.67;;;;;;;2.76;85.81;100688.88;5095644;28;20047;-66
2022/11/20 04:18:57;;;;;;;49.28;21.00;;;;;;;2.70;86.15;100690.13;5095657;28;20048;-65
2022/11/20 04:21:25;;;;;;;44.50;20.02;;;;;;;2.77;85.97;100698.41;5095410;28;20481;-67
2022/11/20 04:23:52;;;;;;;48.85;20.45;;;;;;;2.87;85.27;100700.31;5095824;28;20040;-66
2022/11/20 04:26:20;;;;;;;50.75;21.08;;;;;;;2.99;85.17;100692.53;5095194;28;20436;-66
2022/11/20 04:28:48;;;;;;;47.58;20.20;;;;;;;2.88;86.14;100699.34;5095569;28;20131;-67
2022/11/20 04:31:17;;;;;;;50.75;20.38;;;;;;;3.02;85.95;100692.31;5094818;28;20089;-66
2022/11/20 04:33:44;;;;;;;51.20;21.25;;;;;;;3.03;85.97;100696.63;5094070;28;20040;-66
2022/11/20 04:36:15;;;;;;;46.20;20.98;;;;;;;2.96;86.49;100690.94;5094967;28;20055;-67
2022/11/20 04:38:42;;;;;;;53.85;22.17;;;;;;;2.94;86.68;100695.47;5094961;28;20157;-67
2022/11/20 04:41:15;;;;;;;49.65;21.88;;;;;;;2.89;87.96;100697.56;5095483;28;20048;-66
2022/11/20 04:43:47;;;;;;;50.17;22.05;;;;;;;2.84;88.04;100692.66;5095134;28;20055;-67
2022/11/20 04:46:15;;;;;;;50.40;22.48;;;;;;;2.76;88.43;100701.97;5094209;28;20047;-66
2022/11/20 04:48:42;;;;;;;49.42;21.90;;;;;;;2.58;88.81;100694.41;5093593;28;20439;-66
2022/11/20 04:51:08;;;;;;;58.30;23.45;;;;;;;2.56;89.62;100692.84;5095170;28;20168;-66
2022/11/20 04:53:36;;;;;;;48.70;22.38;;;;;;;2.65;89.15;100694.84;5093693;28;20039;-66
2022/11/20 04:56:05;;;;;;;53.60;22.77;;;;;;;2.58;88.72;100691.78;5094375;28;20040;-67
2022/11/20 04:58:32;;;;;;;58.28;22.50;;;;;;;2.67;88.26;100691.19;5095044;28;20044;-66
2022/11/20 05:01:02;;;;;;;58.90;23.25;;;;;;;2.60;88.49;100696.91;5093998;28;20043;-66
2022/11/20 05:03:30;;;;;;;58.95;22.88;;;;;;;2.68;88.03;100697.25;5095046;28;20393;-67
2022/11/20 05:05:59;;;;;;;57.20;22.33;;;;;;;2.50;88.40;100696.72;5093928;28;20048;-66
2022/11/20 05:08:26;;;;;;;58.08;22.48;;;;;;;2.61;88.15;100686.34;5094655;28;20043;-66
2022/11/20 05:10:52;;;;;;;48.05;21.45;;;;;;;2.63;87.71;100689.69;5094437;28;20439;-66
2022/11/20 05:13:19;;;;;;;57.28;23.10;;;;;;;2.70;87.67;100703.22;5094555;28;20087;-66
2022/11/20 05:15:46;;;;;;;51.95;23.48;;;;;;;2.61;87.67;100699.44;5094905;28;20055;-66
2022/11/20 05:18:12;;;;;;;48.72;22.75;;;;;;;2.67;87.82;100696.44;5094488;28;20040;-66
2022/11/20 05:20:39;;;;;;;54.13;23.23;;;;;;;2.74;87.56;100696.81;5094533;28;20048;-66
2022/11/20 05:23:06;;;;;;;53.67;23.13;;;;;;;2.81;86.95;100694.63;5094626;28;20052;-66
2022/11/20 05:25:33;;;;;;;52.15;22.73;;;;;;;2.81;87.31;100689.41;5094449;28;20116;-66
2022/11/20 05:27:59;;;;;;;48.10;22.50;;;;;;;2.86;87.44;100684.69;5094676;28;20492;-66
2022/11/20 05:30:26;;;;;;;59.97;23.67;;;;;;;2.70;87.64;100692.75;5094242;28;20477;-67
2022/11/20 05:32:53;;;;;;;53.65;23.33;;;;;;;2.57;87.77;100687.50;5094199;28;20044;-66
2022/11/20 05:35:20;;;;;;;56.40;23.02;;;;;;;2.53;87.85;100691.28;5094203;28;20044;-66
2022/11/20 05:37:46;;;;;;;63.25;24.13;;;;;;;2.41;88.59;100689.47;5093572;28;20055;-66
2022/11/20 05:40:13;;;;;;;56.60;22.50;;;;;;;2.44;88.75;100692.72;5094259;28;20485;-67
2022/11/20 05:42:39;;;;;;;57.90;25.15;;;;;;;2.52;89.01;100694.00;5093980;28;20427;-66
2022/11/20 05:45:07;;;;;;;48.15;22.25;;;;;;;2.56;88.72;100690.22;5094045;28;20047;-66
2022/11/20 05:47:34;;;;;;;52.90;24.10;;;;;;;2.74;88.26;100693.38;5092786;28;20045;-67
2022/11/20 05:50:01;;;;;;;56.95;23.70;;;;;;;2.83;87.89;100695.38;5094264;28;20052;-66
2022/11/20 05:52:29;;;;;;;53.03;23.77;;;;;;;2.76;87.91;100683.63;5093590;28;20370;-67
2022/11/20 05:54:57;;;;;;;56.15;23.90;;;;;;;2.82;88.42;100688.44;5094002;28;20511;-66
2022/11/20 05:57:24;;;;;;;55.33;23.95;;;;;;;2.86;88.26;100682.06;5093688;28;20040;-66
2022/11/20 05:59:50;;;;;;;52.33;23.38;;;;;;;2.88;87.75;100683.63;5094041;28;20063;-67
2022/11/20 06:02:17;;;;;;;52.47;23.38;;;;;;;2.75;88.29;100688.03;5093925;28;20122;-66
2022/11/20 06:04:44;;;;;;;50.33;23.27;;;;;;;2.86;88.22;100682.91;5093330;28;20047;-66
2022/11/20 06:07:10;;;;;;;47.15;22.02;;;;;;;2.96;88.16;100690.13;5093027;28;20411;-66
2022/11/20 06:09:37;;;;;;;58.85;23.65;;;;;;;3.10;87.27;100682.13;5093329;28;20071;-66
2022/11/20 06:12:04;;;;;;;52.33;23.42;;;;;;;3.19;86.95;100680.66;5093512;28;20051;-66
2022/11/20 06:14:31;;;;;;;54.15;23.80;;;;;;;3.20;86.80;100679.69;5093264;28;20382;-67
2022/11/20 06:16:58;;;;;;;55.92;24.15;;;;;;;3.22;87.02;100677.81;5093718;28;20048;-66
2022/11/20 06:19:25;;;;;;;57.33;23.27;;;;;;;3.25;86.64;100677.59;5093619;28;20051;-66
2022/11/20 06:21:52;;;;;;;50.45;22.67;;;;;;;3.29;86.46;100673.81;5092153;28;20132;-66
2022/11/20 06:24:19;;;;;;;54.63;23.60;;;;;;;3.29;86.30;100678.22;5093379;28;20459;-66
2022/11/20 06:26:45;;;;;;;52.60;22.42;;;;;;;3.37;86.03;100689.03;5093409;28;20052;-66
2022/11/20 06:29:12;;;;;;;55.92;23.85;;;;;;;3.29;86.58;100688.69;5093256;28;20051;-66
2022/11/20 06:31:39;;;;;;;49.58;22.88;;;;;;;3.24;87.02;100689.03;5093377;28;20047;-66
2022/11/20 06:34:06;;;;;;;51.80;24.00;;;;;;;3.34;86.39;100690.06;5093352;28;20515;-66
2022/11/20 06:36:33;;;;;;;51.88;22.58;;;;;;;3.26;86.48;100682.75;5093175;28;20056;-66
2022/11/20 06:39:00;;;;;;;50.75;22.85;;;;;;;3.17;86.85;100677.31;5092770;28;20051;-66
2022/11/20 06:41:27;;;;;;;44.85;20.83;;;;;;;3.22;86.84;100689.16;5093489;28;20064;-66
2022/11/20 06:43:54;;;;;;;50.35;22.83;;;;;;;3.22;86.99;100689.16;5093149;28;20048;-67
2022/11/20 06:46:22;;;;;;;52.00;23.08;;;;;;;3.20;87.23;100687.56;5093418;28;20059;-66
2022/11/20 06:48:49;;;;;;;49.10;23.00;;;;;;;3.21;87.22;100695.31;5092095;28;20051;-66
2022/11/20 06:51:17;;;;;;;56.05;23.20;;;;;;;3.20;86.80;100688.41;5093214;28;20052;-66
2022/11/20 06:53:43;;;;;;;50.60;22.10;;;;;;;3.17;87.02;100695.66;5092908;28;20401;-66
2022/11/20 06:56:11;;;;;;;54.33;23.08;;;;;;;3.06;87.16;100692.00;5092638;28;20063;-67
2022/11/20 06:58:38;;;;;;;49.67;20.95;;;;;;;3.00;87.25;100691.56;5093439;28;20048;-66
2022/11/20 07:01:07;;;;;;;55.95;22.48;;;;;;;2.97;88.00;100694.44;5092892;28;20052;-67
2022/11/20 07:03:34;;;;;;;43.88;21.33;;;;;;;2.84;88.26;100697.88;5093422;28;20051;-67
2022/11/20 07:06:02;;;;;;;51.15;21.40;;;;;;;2.72;88.76;100703.13;5092102;28;20083;-67
2022/11/20 07:08:29;;;;;;;47.70;21.40;;;;;;;2.60;89.49;100712.63;5074792;28;20074;-66
2022/11/20 07:11:00;;;;;;;49.17;21.70;;;;;;;2.67;88.95;100712.16;5072620;28;20063;-66
2022/11/20 07:13:27;;;;;;;55.33;22.40;;;;;;;2.63;89.15;100715.88;5072331;28;20055;-66
2022/11/20 07:15:54;;;;;;;51.38;21.33;;;;;;;2.55;89.20;100715.59;5072783;28;20196;-66
2022/11/20 07:18:21;;;;;;;48.72;22.00;;;;;;;2.54;88.51;100711.28;5072677;28;20048;-66
2022/11/20 07:20:48;;;;;;;46.33;21.80;;;;;;;2.46;89.38;100710.97;5072847;28;20127;-67
2022/11/20 07:23:14;;;;;;;50.88;22.60;;;;;;;2.58;89.14;100706.66;5073419;28;20055;-66
2022/11/20 07:25:41;;;;;;;53.42;24.08;;;;;;;2.63;88.96;100707.19;5076342;28;20410;-67
2022/11/20 07:28:10;;;;;;;56.75;22.55;;;;;;;2.63;88.93;100715.88;5076356;28;20435;-66
2022/11/20 07:30:37;;;;;;;49.72;22.33;;;;;;;2.65;88.76;100724.47;5076577;28;20052;-66
2022/11/20 07:33:04;;;;;;;53.85;23.30;;;;;;;2.58;89.76;100725.84;4970280;28;20051;-65
2022/11/20 07:35:31;;;;;;;53.97;22.75;;;;;;;2.56;89.89;100721.66;5086496;28;20061;-65
2022/11/20 07:37:57;;;;;;;58.13;22.75;;;;;;;2.71;89.37;100725.88;5095817;28;20048;-65
2022/11/20 07:40:24;;;;;;;60.85;23.90;;;;;;;2.77;88.69;100719.38;5096524;28;20052;-65
2022/11/20 07:42:53;;;;;;;56.03;23.17;;;;;;;2.82;88.83;100710.25;5096440;28;20534;-65
2022/11/20 07:45:21;;;;;;;51.92;23.55;;;;;;;2.87;89.06;100709.94;5095203;28;20048;-65
2022/11/20 07:47:48;;;;;;;53.20;23.98;;;;;;;2.98;88.90;100702.16;5096310;28;20481;-66
2022/11/20 07:50:16;;;;;;;54.72;24.38;;;;;;;3.01;89.21;100709.00;5096557;28;20512;-66
2022/11/20 07:52:42;;;;;;;56.33;23.38;;;;;;;3.06;89.15;100706.91;5095859;28;20057;-66
2022/11/20 07:55:10;;;;;;;61.58;24.85;;;;;;;3.10;89.30;100702.28;5096286;28;20052;-65
2022/11/20 07:57:37;;;;;;;58.95;24.27;;;;;;;3.15;88.66;100702.81;5095556;28;20404;-65
2022/11/20 08:00:08;;;;;;;54.97;24.73;;;;;;;3.19;88.51;100701.63;5095139;28;20048;-65
2022/11/20 08:02:39;;;;;;;60.08;24.35;;;;;;;3.25;88.91;100703.81;5095788;28;20455;-65
2022/11/20 08:05:08;;;;;;;51.53;22.35;;;;;;;3.24;89.26;100699.53;5095431;28;20565;-65
2022/11/20 08:07:37;;;;;;;49.35;22.48;;;;;;;3.24;89.11;100691.66;5095145;28;20123;-66
2022/11/20 08:10:04;;;;;;;53.35;23.38;;;;;;;3.41;88.36;100691.28;5095768;28;20052;-66
2022/11/20 08:15:18;;;;;;;50.63;22.88;;;;;;;3.54;88.03;100688.63;5095258;28;20504;-66
2022/11/20 08:17:44;;;;;;;45.92;21.92;;;;;;;3.59;88.28;100691.78;5095998;28;20048;-67
2022/11/20 08:20:18;;;;;;;48.70;22.25;;;;;;;3.59;88.12;100697.00;5095584;28;20208;-66
2022/11/20 08:22:44;;;;;;;54.97;23.90;;;;;;;3.60;87.92;100703.94;5095774;28;20058;-66
2022/11/20 08:25:11;;;;;;;49.25;21.23;;;;;;;3.55;87.18;100702.59;5095557;28;20456;-67
2022/11/20 08:27:38;;;;;;;51.05;21.98;;;;;;;3.42;87.40;100708.72;5095679;28;20039;-66
2022/11/20 08:30:05;;;;;;;55.20;22.77;;;;;;;3.60;87.27;100710.97;5095387;28;20044;-66
2022/11/20 08:32:32;;;;;;;46.03;21.80;;;;;;;3.62;87.88;100695.94;4980891;28;20048;-66
2022/11/20 08:34:59;;;;;;;50.05;21.30;;;;;;;3.57;88.33;100705.97;5095203;28;20043;-66
2022/11/20 08:37:26;;;;;;;47.45;21.83;;;;;;;3.36;88.87;100705.69;5094713;28;20056;-65
2022/11/20 08:39:53;;;;;;;44.60;20.75;;;;;;;3.38;88.89;100711.66;5095320;28;20048;-65
2022/11/20 08:42:20;;;;;;;46.13;21.70;;;;;;;3.36;89.84;100710.94;5095401;28;20485;-65
2022/11/20 08:44:46;;;;;;;42.95;21.02;;;;;;;3.50;89.72;100705.53;5093513;28;20570;-66
2022/11/20 08:47:13;;;;;;;44.53;21.00;;;;;;;3.62;89.91;100709.06;5085437;28;20048;-66
2022/11/20 08:49:40;;;;;;;41.97;20.38;;;;;;;3.65;89.45;100707.06;5094599;28;20040;-67
2022/11/20 08:52:06;;;;;;;45.42;21.23;;;;;;;3.74;88.37;100702.94;5093477;28;20071;-66
2022/11/20 08:54:33;;;;;;;44.30;22.20;;;;;;;3.68;88.77;100703.41;5092715;28;20489;-66
2022/11/20 08:57:00;;;;;;;41.75;20.60;;;;;;;3.71;89.27;100708.44;5094289;28;20532;-66
2022/11/20 08:59:27;;;;;;;40.72;20.63;;;;;;;3.90;88.93;100713.16;5094717;28;20032;-66
2022/11/20 09:02:09;;;;;;;38.17;19.98;;;;;;;3.99;89.07;100717.75;5094686;28;20044;-66
2022/11/20 09:04:36;;;;;;;42.63;19.25;;;;;;;4.12;87.37;100722.09;5094206;28;20039;-66
2022/11/20 09:07:03;;;;;;;38.22;18.95;;;;;;;3.83;87.55;100714.56;5093407;28;20048;-65
2022/11/20 09:09:29;;;;;;;37.75;18.88;;;;;;;3.78;88.50;100709.66;5094525;28;20043;-65
2022/11/20 09:11:56;;;;;;;36.40;19.27;;;;;;;3.82;89.08;100702.38;5094348;28;20044;-66
2022/11/20 09:14:24;;;;;;;36.72;20.02;;;;;;;3.82;88.98;100711.09;5094766;28;20044;-66
2022/11/20 09:16:51;;;;;;;39.60;19.60;;;;;;;3.92;88.71;100703.41;5094190;28;20048;-64
2022/11/20 09:19:18;;;;;;;42.78;20.27;;;;;;;3.87;88.04;100695.00;5094675;28;20086;-66
2022/11/20 09:22:01;;;;;;;39.35;19.98;;;;;;;3.71;88.34;100690.06;5094468;28;20058;-66
2022/11/20 09:24:28;;;;;;;41.60;19.10;;;;;;;3.73;88.45;100689.94;5093029;28;20393;-66
2022/11/20 09:26:54;;;;;;;44.33;20.25;;;;;;;3.88;88.12;100688.00;5094255;28;20048;-66
2022/11/20 09:29:21;;;;;;;41.20;18.92;;;;;;;3.89;87.52;100687.88;5094385;28;20473;-66
2022/11/20 09:31:48;;;;;;;35.88;17.70;;;;;;;4.01;87.35;100678.25;4995552;28;20651;-66
2022/11/20 09:34:15;;;;;;;36.13;17.77;;;;;;;4.04;87.20;100675.44;5078113;28;20063;-65
2022/11/20 09:36:42;;;;;;;36.88;18.55;;;;;;;4.10;86.32;100674.97;5093599;28;20056;-66
2022/11/20 09:39:08;;;;;;;41.72;17.73;;;;;;;4.18;85.87;100677.88;5093704;28;20081;-66
2022/11/20 09:41:49;;;;;;;33.45;17.65;;;;;;;4.24;85.37;100666.06;5093799;28;20044;-65
2022/11/20 09:44:40;;;;;;;37.27;18.13;;;;;;;4.30;85.09;100676.09;5093960;28;20040;-66
2022/11/20 09:47:17;;;;;;;36.17;16.55;;;;;;;4.42;83.85;100677.81;5093291;28;20347;-65
2022/11/20 09:50:19;;;;;;;32.63;15.68;;;;;;;4.42;81.04;100671.69;5094008;28;20044;-66
2022/11/20 09:53:04;;;;;;;32.58;16.58;;;;;;;4.72;81.09;100665.91;5092942;28;20067;-65
2022/11/20 09:55:35;;;;;;;34.70;16.17;;;;;;;4.55;79.31;100675.09;5093932;28;20117;-65
2022/11/20 09:58:07;;;;;;;34.35;16.38;;;;;;;4.47;79.98;100676.63;5093305;28;20097;-65
2022/11/20 10:00:37;;;;;;;32.47;15.73;;;;;;;4.52;80.29;100685.00;5094074;28;20063;-65
2022/11/20 10:03:22;;;;;;;33.22;16.70;;;;;;;4.63;80.93;100679.75;5093358;28;20119;-65
2022/11/20 10:05:53;;;;;;;30.50;15.85;;;;;;;4.46;79.37;100681.03;5093199;28;20421;-65
2022/11/20 10:08:43;;;;;;;31.75;15.75;;;;;;;4.58;79.03;100676.63;5093300;28;20040;-65
2022/11/20 10:11:27;;;;;;;31.85;16.02;;;;;;;4.45;80.35;100683.78;5092673;28;20064;-67
2022/11/20 10:14:33;;;;;;;34.05;15.90;;;;;;;4.57;81.28;100675.81;5093283;28;20036;-66
2022/11/20 10:20:22;;;;;;;35.30;15.27;;;;;;;4.72;80.57;100662.44;5110795;27;20729;-66
2022/11/20 10:23:27;;;;;;;35.13;17.02;;;;;;;4.78;80.36;100651.44;5110711;28;20040;-66
2022/11/20 10:26:12;;;;;;;37.65;15.93;;;;;;;4.81;79.55;100648.59;5110487;28;20051;-66
2022/11/20 10:28:59;;;;;;;34.63;15.50;;;;;;;4.57;80.27;100635.56;5109755;28;20085;-67
2022/11/20 10:31:40;;;;;;;32.03;16.38;;;;;;;4.76;80.60;100638.44;5110943;28;20059;-65
2022/11/20 10:34:21;;;;;;;39.83;16.48;;;;;;;4.58;80.48;100630.19;4984242;28;20059;-64
2022/11/20 10:36:56;;;;;;;35.53;17.30;;;;;;;4.35;81.93;100631.13;5090396;28;20083;-66
2022/11/20 10:39:35;;;;;;;37.42;16.38;;;;;;;4.53;81.88;100620.97;5089865;28;20040;-66
2022/11/20 10:42:02;;;;;;;31.27;15.63;;;;;;;4.57;81.47;100623.25;5090664;28;20045;-66
2022/11/20 10:45:00;;;;;;;34.70;16.60;;;;;;;4.64;81.03;100617.50;5090342;28;20102;-66
2022/11/20 10:47:20;;;;;;;37.13;16.48;;;;;;;4.73;80.63;100608.91;5090002;28;20440;-66
2022/11/20 10:49:52;;;;;;;38.97;17.00;;;;;;;4.78;80.97;100610.25;5090030;28;20040;-66
2022/11/20 10:52:49;;;;;;;38.30;17.65;;;;;;;4.70;80.10;100617.88;5090232;28;20123;-66
2022/11/20 10:55:46;;;;;;;41.20;17.83;;;;;;;4.81;80.20;100607.38;5089883;28;20048;-66
2022/11/20 10:58:19;;;;;;;35.47;16.40;;;;;;;4.86;79.42;100601.78;5089843;28;20402;-65
2022/11/20 11:00:48;;;;;;;37.75;17.50;;;;;;;4.87;79.84;100598.16;5089821;28;20127;-66
2022/11/20 11:03:30;;;;;;;37.35;17.95;;;;;;;4.97;79.88;100593.03;5090211;28;20051;-65
2022/11/20 11:06:07;;;;;;;36.45;17.55;;;;;;;4.95;79.27;100589.69;5103405;28;20044;-66
2022/11/20 11:08:38;;;;;;;38.58;17.25;;;;;;;4.91;79.56;100583.00;5110168;28;20046;-66
2022/11/20 11:11:20;;;;;;;36.05;17.40;;;;;;;4.67;80.30;100577.88;5108530;28;20546;-65
2022/11/20 11:13:46;;;;;;;37.73;18.20;;;;;;;4.85;80.61;100570.34;5108661;28;20047;-65
2022/11/20 11:16:23;;;;;;;36.53;17.92;;;;;;;4.97;80.51;100564.94;5110071;28;20616;-65
2022/11/20 11:18:50;;;;;;;34.75;17.92;;;;;;;4.87;80.30;100571.88;5109526;28;20104;-65
2022/11/20 11:21:25;;;;;;;35.28;17.20;;;;;;;4.92;79.63;100571.53;5109701;28;20047;-65
2022/11/20 11:24:02;;;;;;;35.33;17.05;;;;;;;4.81;80.16;100564.50;5109481;28;20048;-66
2022/11/20 11:26:39;;;;;;;37.67;17.00;;;;;;;4.85;80.86;100565.91;5109571;28;20405;-65
2022/11/20 11:29:17;;;;;;;33.72;17.10;;;;;;;4.88;80.30;100551.72;5107245;28;20105;-67
2022/11/20 11:31:44;;;;;;;37.45;16.23;;;;;;;4.99;80.41;100549.06;4986706;28;20577;-64
2022/11/20 11:34:14;;;;;;;36.15;16.52;;;;;;;5.00;80.29;100538.41;5079842;28;20485;-65
2022/11/20 11:36:42;;;;;;;34.50;17.08;;;;;;;5.02;79.67;100545.34;5097835;28;20039;-65
2022/11/20 11:39:15;;;;;;;41.13;17.65;;;;;;;4.95;80.24;100539.75;5095770;28;20040;-65
2022/11/20 11:41:42;;;;;;;37.40;16.23;;;;;;;4.84;80.82;100535.34;5096156;28;20142;-65
2022/11/20 11:47:33;;;;;;;39.45;17.10;;;;;;;5.06;80.25;100525.72;5093151;28;20071;-67